sensor_id;sensor_type;location;lat;lon;timestamp;temperature;humidity
13892;DHT22;7016;48.172;8.058;2022-11-14T00:01:10;5.90;99.90
13892;DHT22;7016;48.172;8.058;2022-11-14T00:03:37;5.90;99.90
13892;DHT22;7016;48.172;8.058;2022-11-14T00:06:06;5.90;99.90
13892;DHT22;7016;48.172;8.058;2022-11-14T00:08:32;5.80;99.90
13892;DHT22;7016;48.172;8.058;2022-11-14T00:10:58;5.70;99.90
13892;DHT22;7016;48.172;8.058;2022-11-14T00:13:24;5.60;99.90
13892;DHT22;7016;48.172;8.058;2022-11-14T00:15:51;5.50;99.90
13892;DHT22;7016;48.172;8.058;2022-11-14T00:18:21;5.50;99.90
13892;DHT22;7016;48.172;8.058;2022-11-14T00:20:48;5.40;99.90
13892;DHT22;7016;48.172;8.058;2022-11-14T00:23:14;5.40;99.90
13892;DHT22;7016;48.172;8.058;2022-11-14T00:25:40;5.40;99.90
13892;DHT22;7016;48.172;8.058;2022-11-14T00:28:05;5.50;99.90
13892;DHT22;7016;48.172;8.058;2022-11-14T00:30:31;5.60;99.90
13892;DHT22;7016;48.172;8.058;2022-11-14T00:33:00;5.60;99.90
13892;DHT22;7016;48.172;8.058;2022-11-14T00:35:26;5.50;99.90
13892;DHT22;7016;48.172;8.058;2022-11-14T00:37:51;5.50;99.90
13892;DHT22;7016;48.172;8.058;2022-11-14T00:40:17;5.50;99.90
13892;DHT22;7016;48.172;8.058;2022-11-14T00:42:43;5.40;99.90
13892;DHT22;7016;48.172;8.058;2022-11-14T00:45:10;5.40;99.90
13892;DHT22;7016;48.172;8.058;2022-11-14T00:47:36;5.40;99.90
13892;DHT22;7016;48.172;8.058;2022-11-14T00:50:02;5.40;99.90
13892;DHT22;7016;48.172;8.058;2022-11-14T00:52:28;5.30;99.90
13892;DHT22;7016;48.172;8.058;2022-11-14T00:54:53;5.30;99.90
13892;DHT22;7016;48.172;8.058;2022-11-14T00:57:19;5.30;99.90
13892;DHT22;7016;48.172;8.058;2022-11-14T00:59:45;5.20;99.90
13892;DHT22;7016;48.172;8.058;2022-11-14T01:02:11;5.20;99.90
13892;DHT22;7016;48.172;8.058;2022-11-14T01:04:36;5.10;99.90
13892;DHT22;7016;48.172;8.058;2022-11-14T01:07:02;5.10;99.90
13892;DHT22;7016;48.172;8.058;2022-11-14T01:09:28;5.00;99.90
13892;DHT22;7016;48.172;8.058;2022-11-14T01:11:54;4.90;99.90
13892;DHT22;7016;48.172;8.058;2022-11-14T01:14:22;4.80;99.90
13892;DHT22;7016;48.172;8.058;2022-11-14T01:16:48;4.90;99.90
13892;DHT22;7016;48.172;8.058;2022-11-14T01:19:14;4.80;99.90
13892;DHT22;7016;48.172;8.058;2022-11-14T01:21:40;4.70;99.90
13892;DHT22;7016;48.172;8.058;2022-11-14T01:24:06;4.80;99.90
13892;DHT22;7016;48.172;8.058;2022-11-14T01:26:32;3.70;99.90
13892;DHT22;7016;48.172;8.058;2022-11-14T01:28:58;4.80;99.90
13892;DHT22;7016;48.172;8.058;2022-11-14T01:31:24;4.70;99.90
13892;DHT22;7016;48.172;8.058;2022-11-14T01:33:52;4.70;99.90
13892;DHT22;7016;48.172;8.058;2022-11-14T01:36:19;4.70;99.90
13892;DHT22;7016;48.172;8.058;2022-11-14T01:38:44;4.70;99.90
13892;DHT22;7016;48.172;8.058;2022-11-14T01:41:15;4.70;99.90
13892;DHT22;7016;48.172;8.058;2022-11-14T01:43:41;4.60;99.90
13892;DHT22;7016;48.172;8.058;2022-11-14T01:46:13;4.60;99.90
13892;DHT22;7016;48.172;8.058;2022-11-14T01:53:37;4.60;99.90
13892;DHT22;7016;48.172;8.058;2022-11-14T01:56:05;4.60;99.90
13892;DHT22;7016;48.172;8.058;2022-11-14T01:58:33;4.60;99.90
13892;DHT22;7016;48.172;8.058;2022-11-14T02:01:00;4.60;99.90
13892;DHT22;7016;48.172;8.058;2022-11-14T02:03:25;4.50;99.90
13892;DHT22;7016;48.172;8.058;2022-11-14T02:05:52;4.50;99.90
13892;DHT22;7016;48.172;8.058;2022-11-14T02:08:19;4.60;99.90
13892;DHT22;7016;48.172;8.058;2022-11-14T02:10:45;4.60;99.90
13892;DHT22;7016;48.172;8.058;2022-11-14T02:13:11;4.60;99.90
13892;DHT22;7016;48.172;8.058;2022-11-14T02:15:37;4.60;99.90
13892;DHT22;7016;48.172;8.058;2022-11-14T02:18:03;4.50;99.90
13892;DHT22;7016;48.172;8.058;2022-11-14T02:20:33;4.40;99.90
13892;DHT22;7016;48.172;8.058;2022-11-14T02:23:00;4.30;99.90
13892;DHT22;7016;48.172;8.058;2022-11-14T02:25:26;4.30;99.90
13892;DHT22;7016;48.172;8.058;2022-11-14T02:27:52;4.30;99.90
13892;DHT22;7016;48.172;8.058;2022-11-14T02:30:20;4.40;99.90
13892;DHT22;7016;48.172;8.058;2022-11-14T02:32:46;4.50;99.90
13892;DHT22;7016;48.172;8.058;2022-11-14T02:35:12;4.40;99.90
13892;DHT22;7016;48.172;8.058;2022-11-14T02:37:38;4.30;99.90
13892;DHT22;7016;48.172;8.058;2022-11-14T02:40:05;4.30;99.90
13892;DHT22;7016;48.172;8.058;2022-11-14T02:42:31;4.20;99.90
13892;DHT22;7016;48.172;8.058;2022-11-14T02:44:56;4.30;99.90
13892;DHT22;7016;48.172;8.058;2022-11-14T02:47:22;4.40;99.90
13892;DHT22;7016;48.172;8.058;2022-11-14T02:49:51;4.40;99.90
13892;DHT22;7016;48.172;8.058;2022-11-14T02:52:17;4.40;99.90
13892;DHT22;7016;48.172;8.058;2022-11-14T02:54:42;4.40;99.90
13892;DHT22;7016;48.172;8.058;2022-11-14T02:57:08;4.50;99.90
13892;DHT22;7016;48.172;8.058;2022-11-14T02:59:34;4.60;99.90
13892;DHT22;7016;48.172;8.058;2022-11-14T03:02:00;4.60;99.90
13892;DHT22;7016;48.172;8.058;2022-11-14T03:04:25;4.70;99.90
13892;DHT22;7016;48.172;8.058;2022-11-14T03:06:51;4.70;99.90
13892;DHT22;7016;48.172;8.058;2022-11-14T03:09:17;4.60;99.90
13892;DHT22;7016;48.172;8.058;2022-11-14T03:11:42;4.60;99.90
13892;DHT22;7016;48.172;8.058;2022-11-14T03:14:08;4.60;99.90
13892;DHT22;7016;48.172;8.058;2022-11-14T03:16:34;4.60;99.90
13892;DHT22;7016;48.172;8.058;2022-11-14T03:19:00;4.60;99.90
13892;DHT22;7016;48.172;8.058;2022-11-14T03:21:27;4.60;99.90
13892;DHT22;7016;48.172;8.058;2022-11-14T03:23:52;4.50;99.90
13892;DHT22;7016;48.172;8.058;2022-11-14T03:26:18;4.50;99.90
13892;DHT22;7016;48.172;8.058;2022-11-14T03:28:44;4.30;99.90
13892;DHT22;7016;48.172;8.058;2022-11-14T03:31:11;4.30;99.90
13892;DHT22;7016;48.172;8.058;2022-11-14T03:33:38;4.30;99.90
13892;DHT22;7016;48.172;8.058;2022-11-14T03:36:04;4.30;99.90
13892;DHT22;7016;48.172;8.058;2022-11-14T03:38:30;4.50;99.90
13892;DHT22;7016;48.172;8.058;2022-11-14T03:40:57;4.50;99.90
13892;DHT22;7016;48.172;8.058;2022-11-14T03:43:23;4.50;99.90
13892;DHT22;7016;48.172;8.058;2022-11-14T03:45:48;4.50;99.90
13892;DHT22;7016;48.172;8.058;2022-11-14T03:48:14;4.70;99.90
13892;DHT22;7016;48.172;8.058;2022-11-14T03:50:41;4.60;99.90
13892;DHT22;7016;48.172;8.058;2022-11-14T03:53:07;4.80;99.90
13892;DHT22;7016;48.172;8.058;2022-11-14T03:55:33;4.80;99.90
13892;DHT22;7016;48.172;8.058;2022-11-14T03:57:59;4.80;99.90
13892;DHT22;7016;48.172;8.058;2022-11-14T04:00:25;4.90;99.90
13892;DHT22;7016;48.172;8.058;2022-11-14T04:02:56;4.90;99.90
13892;DHT22;7016;48.172;8.058;2022-11-14T04:05:23;5.00;99.90
13892;DHT22;7016;48.172;8.058;2022-11-14T04:07:49;5.00;99.90
13892;DHT22;7016;48.172;8.058;2022-11-14T04:10:15;5.10;99.90
13892;DHT22;7016;48.172;8.058;2022-11-14T04:12:45;5.20;99.90
13892;DHT22;7016;48.172;8.058;2022-11-14T04:15:11;5.20;99.90
13892;DHT22;7016;48.172;8.058;2022-11-14T04:17:37;5.30;99.90
13892;DHT22;7016;48.172;8.058;2022-11-14T04:20:03;5.30;99.90
13892;DHT22;7016;48.172;8.058;2022-11-14T04:22:28;5.30;99.90
13892;DHT22;7016;48.172;8.058;2022-11-14T04:24:54;5.40;99.90
13892;DHT22;7016;48.172;8.058;2022-11-14T04:27:20;5.20;99.90
13892;DHT22;7016;48.172;8.058;2022-11-14T04:29:46;5.30;99.90
13892;DHT22;7016;48.172;8.058;2022-11-14T04:32:11;5.40;99.90
13892;DHT22;7016;48.172;8.058;2022-11-14T04:34:37;5.40;99.90
13892;DHT22;7016;48.172;8.058;2022-11-14T04:37:03;5.40;99.90
13892;DHT22;7016;48.172;8.058;2022-11-14T04:39:29;5.20;99.90
13892;DHT22;7016;48.172;8.058;2022-11-14T04:41:54;5.10;99.90
13892;DHT22;7016;48.172;8.058;2022-11-14T04:44:20;5.20;99.90
13892;DHT22;7016;48.172;8.058;2022-11-14T04:46:46;5.10;99.90
13892;DHT22;7016;48.172;8.058;2022-11-14T04:49:11;5.20;99.90
13892;DHT22;7016;48.172;8.058;2022-11-14T04:51:37;5.20;99.90
13892;DHT22;7016;48.172;8.058;2022-11-14T04:54:03;5.30;99.90
13892;DHT22;7016;48.172;8.058;2022-11-14T04:56:29;5.40;99.90
13892;DHT22;7016;48.172;8.058;2022-11-14T04:58:54;5.50;99.90
13892;DHT22;7016;48.172;8.058;2022-11-14T05:01:20;6.10;99.90
13892;DHT22;7016;48.172;8.058;2022-11-14T05:03:46;5.70;99.90
13892;DHT22;7016;48.172;8.058;2022-11-14T05:06:11;5.80;99.90
13892;DHT22;7016;48.172;8.058;2022-11-14T05:08:37;5.80;99.90
13892;DHT22;7016;48.172;8.058;2022-11-14T05:11:03;5.80;99.90
13892;DHT22;7016;48.172;8.058;2022-11-14T05:13:29;5.90;99.90
13892;DHT22;7016;48.172;8.058;2022-11-14T05:15:59;5.90;99.90
13892;DHT22;7016;48.172;8.058;2022-11-14T05:18:25;6.00;99.90
13892;DHT22;7016;48.172;8.058;2022-11-14T05:20:51;6.00;99.90
13892;DHT22;7016;48.172;8.058;2022-11-14T05:23:21;6.10;99.90
13892;DHT22;7016;48.172;8.058;2022-11-14T05:26:04;6.10;99.90
13892;DHT22;7016;48.172;8.058;2022-11-14T05:28:30;6.10;99.90
13892;DHT22;7016;48.172;8.058;2022-11-14T05:31:07;6.20;99.90
13892;DHT22;7016;48.172;8.058;2022-11-14T05:33:34;6.10;99.90
13892;DHT22;7016;48.172;8.058;2022-11-14T05:36:05;6.10;99.90
13892;DHT22;7016;48.172;8.058;2022-11-14T05:38:32;6.20;99.90
13892;DHT22;7016;48.172;8.058;2022-11-14T05:40:58;6.30;99.90
13892;DHT22;7016;48.172;8.058;2022-11-14T05:43:24;6.20;99.90
13892;DHT22;7016;48.172;8.058;2022-11-14T05:45:58;6.20;99.90
13892;DHT22;7016;48.172;8.058;2022-11-14T05:48:24;6.20;99.90
13892;DHT22;7016;48.172;8.058;2022-11-14T05:50:56;6.30;99.90
13892;DHT22;7016;48.172;8.058;2022-11-14T05:53:22;6.20;99.90
13892;DHT22;7016;48.172;8.058;2022-11-14T05:55:48;6.20;99.90
13892;DHT22;7016;48.172;8.058;2022-11-14T05:58:14;6.20;99.90
13892;DHT22;7016;48.172;8.058;2022-11-14T06:00:40;6.20;99.90
13892;DHT22;7016;48.172;8.058;2022-11-14T06:03:05;6.30;99.90
13892;DHT22;7016;48.172;8.058;2022-11-14T06:05:33;6.30;99.90
13892;DHT22;7016;48.172;8.058;2022-11-14T06:07:59;6.40;99.90
13892;DHT22;7016;48.172;8.058;2022-11-14T06:10:26;6.50;99.90
13892;DHT22;7016;48.172;8.058;2022-11-14T06:12:52;6.50;99.90
13892;DHT22;7016;48.172;8.058;2022-11-14T06:15:18;6.50;99.90
13892;DHT22;7016;48.172;8.058;2022-11-14T06:17:44;6.60;99.90
13892;DHT22;7016;48.172;8.058;2022-11-14T06:20:10;6.50;99.90
13892;DHT22;7016;48.172;8.058;2022-11-14T06:22:41;6.60;99.90
13892;DHT22;7016;48.172;8.058;2022-11-14T06:25:07;6.60;99.90
13892;DHT22;7016;48.172;8.058;2022-11-14T06:27:33;6.50;99.90
13892;DHT22;7016;48.172;8.058;2022-11-14T06:29:59;6.50;99.90
13892;DHT22;7016;48.172;8.058;2022-11-14T06:32:25;6.50;99.90
13892;DHT22;7016;48.172;8.058;2022-11-14T06:34:51;6.60;99.90
13892;DHT22;7016;48.172;8.058;2022-11-14T06:37:16;6.70;99.90
13892;DHT22;7016;48.172;8.058;2022-11-14T06:39:42;6.70;99.90
13892;DHT22;7016;48.172;8.058;2022-11-14T06:42:08;6.70;99.90
13892;DHT22;7016;48.172;8.058;2022-11-14T06:44:33;6.80;99.90
13892;DHT22;7016;48.172;8.058;2022-11-14T06:46:59;6.80;99.90
13892;DHT22;7016;48.172;8.058;2022-11-14T06:49:25;6.80;99.90
13892;DHT22;7016;48.172;8.058;2022-11-14T06:51:52;6.80;99.90
13892;DHT22;7016;48.172;8.058;2022-11-14T06:54:18;6.90;99.90
13892;DHT22;7016;48.172;8.058;2022-11-14T06:56:44;6.90;99.90
13892;DHT22;7016;48.172;8.058;2022-11-14T06:59:10;6.90;99.90
13892;DHT22;7016;48.172;8.058;2022-11-14T07:01:35;6.90;99.90
13892;DHT22;7016;48.172;8.058;2022-11-14T07:04:01;7.00;99.90
13892;DHT22;7016;48.172;8.058;2022-11-14T07:06:28;7.00;99.90
13892;DHT22;7016;48.172;8.058;2022-11-14T07:08:56;6.90;99.90
13892;DHT22;7016;48.172;8.058;2022-11-14T07:11:26;7.00;99.90
13892;DHT22;7016;48.172;8.058;2022-11-14T07:13:58;7.10;99.90
13892;DHT22;7016;48.172;8.058;2022-11-14T07:16:32;7.10;99.90
13892;DHT22;7016;48.172;8.058;2022-11-14T07:19:06;7.20;99.90
13892;DHT22;7016;48.172;8.058;2022-11-14T07:21:34;7.10;99.90
13892;DHT22;7016;48.172;8.058;2022-11-14T07:24:00;7.00;99.90
13892;DHT22;7016;48.172;8.058;2022-11-14T07:26:25;7.00;99.90
13892;DHT22;7016;48.172;8.058;2022-11-14T07:28:51;7.20;99.90
13892;DHT22;7016;48.172;8.058;2022-11-14T07:31:18;7.20;99.90
13892;DHT22;7016;48.172;8.058;2022-11-14T07:33:44;7.20;99.90
13892;DHT22;7016;48.172;8.058;2022-11-14T07:36:12;7.20;99.90
13892;DHT22;7016;48.172;8.058;2022-11-14T07:38:38;7.20;99.90
13892;DHT22;7016;48.172;8.058;2022-11-14T07:41:12;7.30;99.90
13892;DHT22;7016;48.172;8.058;2022-11-14T07:43:39;7.20;99.90
13892;DHT22;7016;48.172;8.058;2022-11-14T07:46:11;7.20;99.90
13892;DHT22;7016;48.172;8.058;2022-11-14T07:48:37;7.20;99.90
13892;DHT22;7016;48.172;8.058;2022-11-14T07:51:05;7.20;99.90
13892;DHT22;7016;48.172;8.058;2022-11-14T07:53:31;7.10;99.90
13892;DHT22;7016;48.172;8.058;2022-11-14T07:56:02;7.10;99.90
13892;DHT22;7016;48.172;8.058;2022-11-14T07:58:28;7.00;99.90
13892;DHT22;7016;48.172;8.058;2022-11-14T08:00:54;7.20;99.90
13892;DHT22;7016;48.172;8.058;2022-11-14T08:03:20;7.10;99.90
13892;DHT22;7016;48.172;8.058;2022-11-14T08:05:45;7.20;99.90
13892;DHT22;7016;48.172;8.058;2022-11-14T08:08:11;7.20;99.90
13892;DHT22;7016;48.172;8.058;2022-11-14T08:10:37;7.20;99.90
13892;DHT22;7016;48.172;8.058;2022-11-14T08:13:04;7.30;99.90
13892;DHT22;7016;48.172;8.058;2022-11-14T08:15:31;7.30;99.90
13892;DHT22;7016;48.172;8.058;2022-11-14T08:18:00;7.30;99.90
13892;DHT22;7016;48.172;8.058;2022-11-14T08:20:27;7.40;99.90
13892;DHT22;7016;48.172;8.058;2022-11-14T08:22:53;7.50;99.90
13892;DHT22;7016;48.172;8.058;2022-11-14T08:25:25;7.50;99.90
13892;DHT22;7016;48.172;8.058;2022-11-14T08:27:52;7.60;99.90
13892;DHT22;7016;48.172;8.058;2022-11-14T08:30:18;7.60;99.90
13892;DHT22;7016;48.172;8.058;2022-11-14T08:32:44;7.50;99.90
13892;DHT22;7016;48.172;8.058;2022-11-14T08:35:09;7.40;99.90
13892;DHT22;7016;48.172;8.058;2022-11-14T08:37:35;7.60;99.90
13892;DHT22;7016;48.172;8.058;2022-11-14T08:40:01;7.80;99.90
13892;DHT22;7016;48.172;8.058;2022-11-14T08:42:27;7.80;99.90
13892;DHT22;7016;48.172;8.058;2022-11-14T08:44:53;7.70;99.90
13892;DHT22;7016;48.172;8.058;2022-11-14T08:47:19;7.80;99.90
13892;DHT22;7016;48.172;8.058;2022-11-14T08:49:44;7.90;99.90
13892;DHT22;7016;48.172;8.058;2022-11-14T08:52:10;7.90;99.90
13892;DHT22;7016;48.172;8.058;2022-11-14T08:54:36;7.80;99.90
13892;DHT22;7016;48.172;8.058;2022-11-14T08:57:01;7.80;99.90
13892;DHT22;7016;48.172;8.058;2022-11-14T08:59:30;7.90;99.90
13892;DHT22;7016;48.172;8.058;2022-11-14T09:01:56;7.90;99.90
13892;DHT22;7016;48.172;8.058;2022-11-14T09:04:21;8.00;99.90
13892;DHT22;7016;48.172;8.058;2022-11-14T09:06:47;8.00;99.90
13892;DHT22;7016;48.172;8.058;2022-11-14T09:09:13;7.90;99.90
13892;DHT22;7016;48.172;8.058;2022-11-14T09:11:39;8.00;99.90
13892;DHT22;7016;48.172;8.058;2022-11-14T09:14:05;8.00;99.90
13892;DHT22;7016;48.172;8.058;2022-11-14T09:16:30;7.90;99.90
13892;DHT22;7016;48.172;8.058;2022-11-14T09:18:58;7.90;99.90
13892;DHT22;7016;48.172;8.058;2022-11-14T09:21:24;7.90;99.90
13892;DHT22;7016;48.172;8.058;2022-11-14T09:23:50;8.20;99.90
13892;DHT22;7016;48.172;8.058;2022-11-14T09:26:16;8.20;99.90
13892;DHT22;7016;48.172;8.058;2022-11-14T09:28:43;8.20;99.90
13892;DHT22;7016;48.172;8.058;2022-11-14T09:31:10;8.30;99.90
13892;DHT22;7016;48.172;8.058;2022-11-14T09:33:36;8.40;99.90
13892;DHT22;7016;48.172;8.058;2022-11-14T09:36:04;8.40;99.90
13892;DHT22;7016;48.172;8.058;2022-11-14T09:38:31;8.50;99.90
13892;DHT22;7016;48.172;8.058;2022-11-14T09:46:43;8.40;99.90
13892;DHT22;7016;48.172;8.058;2022-11-14T09:49:29;8.50;99.90
13892;DHT22;7016;48.172;8.058;2022-11-14T09:52:08;8.50;99.90
13892;DHT22;7016;48.172;8.058;2022-11-14T09:54:45;8.50;99.90
13892;DHT22;7016;48.172;8.058;2022-11-14T09:57:18;8.50;99.90
13892;DHT22;7016;48.172;8.058;2022-11-14T09:59:44;8.50;99.90
13892;DHT22;7016;48.172;8.058;2022-11-14T10:02:38;8.60;99.90
13892;DHT22;7016;48.172;8.058;2022-11-14T10:11:12;8.90;99.90
13892;DHT22;7016;48.172;8.058;2022-11-14T10:16:24;8.90;99.90
13892;DHT22;7016;48.172;8.058;2022-11-14T10:22:18;9.00;99.90
13892;DHT22;7016;48.172;8.058;2022-11-14T10:28:06;9.30;99.90
13892;DHT22;7016;48.172;8.058;2022-11-14T10:31:23;9.30;99.90
13892;DHT22;7016;48.172;8.058;2022-11-14T10:33:45;9.50;99.90
13892;DHT22;7016;48.172;8.058;2022-11-14T10:36:26;9.50;99.90
13892;DHT22;7016;48.172;8.058;2022-11-14T10:41:34;9.50;99.90
13892;DHT22;7016;48.172;8.058;2022-11-14T10:44:02;9.60;99.90
13892;DHT22;7016;48.172;8.058;2022-11-14T10:46:44;9.60;99.90
13892;DHT22;7016;48.172;8.058;2022-11-14T10:49:24;9.60;99.90
13892;DHT22;7016;48.172;8.058;2022-11-14T10:51:58;9.70;99.90
13892;DHT22;7016;48.172;8.058;2022-11-14T10:57:00;9.90;99.90
13892;DHT22;7016;48.172;8.058;2022-11-14T10:59:26;9.90;99.90
13892;DHT22;7016;48.172;8.058;2022-11-14T11:01:57;10.10;99.90
13892;DHT22;7016;48.172;8.058;2022-11-14T11:04:29;10.10;99.90
13892;DHT22;7016;48.172;8.058;2022-11-14T11:07:18;10.20;99.90
13892;DHT22;7016;48.172;8.058;2022-11-14T11:10:01;10.20;99.90
13892;DHT22;7016;48.172;8.058;2022-11-14T11:12:48;10.20;99.90
13892;DHT22;7016;48.172;8.058;2022-11-14T11:15:19;10.20;99.90
13892;DHT22;7016;48.172;8.058;2022-11-14T11:18:14;10.30;99.90
13892;DHT22;7016;48.172;8.058;2022-11-14T11:21:10;10.40;99.90
13892;DHT22;7016;48.172;8.058;2022-11-14T11:23:50;10.50;99.90
13892;DHT22;7016;48.172;8.058;2022-11-14T11:29:16;10.50;99.90
13892;DHT22;7016;48.172;8.058;2022-11-14T11:31:58;10.60;99.90
13892;DHT22;7016;48.172;8.058;2022-11-14T11:34:31;10.50;99.90
13892;DHT22;7016;48.172;8.058;2022-11-14T11:37:19;10.50;99.90
13892;DHT22;7016;48.172;8.058;2022-11-14T11:39:56;10.80;99.90
13892;DHT22;7016;48.172;8.058;2022-11-14T11:43:13;10.80;99.90
13892;DHT22;7016;48.172;8.058;2022-11-14T11:45:17;11.10;99.90
13892;DHT22;7016;48.172;8.058;2022-11-14T11:48:12;11.20;99.90
13892;DHT22;7016;48.172;8.058;2022-11-14T11:50:40;11.30;99.90
13892;DHT22;7016;48.172;8.058;2022-11-14T11:53:27;11.50;99.90
13892;DHT22;7016;48.172;8.058;2022-11-14T11:56:24;11.50;99.90
13892;DHT22;7016;48.172;8.058;2022-11-14T11:58:54;11.50;99.90
13892;DHT22;7016;48.172;8.058;2022-11-14T12:01:21;11.60;99.90
13892;DHT22;7016;48.172;8.058;2022-11-14T12:03:51;11.60;99.90
13892;DHT22;7016;48.172;8.058;2022-11-14T12:06:19;11.60;99.90
13892;DHT22;7016;48.172;8.058;2022-11-14T12:11:33;11.80;99.90
13892;DHT22;7016;48.172;8.058;2022-11-14T12:15:01;12.00;99.90
13892;DHT22;7016;48.172;8.058;2022-11-14T12:25:34;12.20;99.90
13892;DHT22;7016;48.172;8.058;2022-11-14T12:30:49;12.30;99.90
13892;DHT22;7016;48.172;8.058;2022-11-14T12:33:33;12.50;99.90
13892;DHT22;7016;48.172;8.058;2022-11-14T12:36:02;12.50;99.90
13892;DHT22;7016;48.172;8.058;2022-11-14T12:38:42;12.40;99.90
13892;DHT22;7016;48.172;8.058;2022-11-14T12:41:08;12.40;99.90
13892;DHT22;7016;48.172;8.058;2022-11-14T12:43:35;12.50;99.90
13892;DHT22;7016;48.172;8.058;2022-11-14T12:46:06;12.50;99.90
13892;DHT22;7016;48.172;8.058;2022-11-14T12:48:42;12.50;99.90
13892;DHT22;7016;48.172;8.058;2022-11-14T12:53:50;12.40;99.90
13892;DHT22;7016;48.172;8.058;2022-11-14T13:04:45;12.40;99.90
13892;DHT22;7016;48.172;8.058;2022-11-14T13:10:28;12.40;99.90
13892;DHT22;7016;48.172;8.058;2022-11-14T13:13:14;12.30;99.90
13892;DHT22;7016;48.172;8.058;2022-11-14T13:16:00;12.30;99.90
13892;DHT22;7016;48.172;8.058;2022-11-14T13:19:02;12.30;99.90
13892;DHT22;7016;48.172;8.058;2022-11-14T13:27:29;12.30;99.90
13892;DHT22;7016;48.172;8.058;2022-11-14T13:29:57;12.30;99.90
13892;DHT22;7016;48.172;8.058;2022-11-14T13:35:43;12.40;99.90
13892;DHT22;7016;48.172;8.058;2022-11-14T13:41:17;12.40;99.90
13892;DHT22;7016;48.172;8.058;2022-11-14T13:44:00;12.30;99.90
13892;DHT22;7016;48.172;8.058;2022-11-14T13:49:17;12.20;99.90
13892;DHT22;7016;48.172;8.058;2022-11-14T13:51:51;12.10;99.90
13892;DHT22;7016;48.172;8.058;2022-11-14T13:54:18;12.10;99.90
13892;DHT22;7016;48.172;8.058;2022-11-14T13:57:08;12.00;99.90
13892;DHT22;7016;48.172;8.058;2022-11-14T14:00:09;12.00;99.90
13892;DHT22;7016;48.172;8.058;2022-11-14T14:08:25;12.10;99.90
13892;DHT22;7016;48.172;8.058;2022-11-14T14:16:57;12.10;99.90
13892;DHT22;7016;48.172;8.058;2022-11-14T14:19:35;12.20;99.90
13892;DHT22;7016;48.172;8.058;2022-11-14T14:25:27;12.30;99.90
13892;DHT22;7016;48.172;8.058;2022-11-14T14:28:48;12.30;99.90
13892;DHT22;7016;48.172;8.058;2022-11-14T14:33:44;12.30;99.90
13892;DHT22;7016;48.172;8.058;2022-11-14T14:36:29;12.30;99.90
13892;DHT22;7016;48.172;8.058;2022-11-14T14:41:42;12.20;99.90
13892;DHT22;7016;48.172;8.058;2022-11-14T14:44:29;12.20;99.90
13892;DHT22;7016;48.172;8.058;2022-11-14T14:46:57;12.20;99.90
13892;DHT22;7016;48.172;8.058;2022-11-14T14:49:28;12.20;99.90
13892;DHT22;7016;48.172;8.058;2022-11-14T14:51:55;12.20;99.90
13892;DHT22;7016;48.172;8.058;2022-11-14T14:54:26;12.30;99.90
13892;DHT22;7016;48.172;8.058;2022-11-14T14:56:58;12.20;99.90
13892;DHT22;7016;48.172;8.058;2022-11-14T14:59:26;12.20;99.90
13892;DHT22;7016;48.172;8.058;2022-11-14T15:01:53;12.20;99.90
13892;DHT22;7016;48.172;8.058;2022-11-14T15:04:23;12.30;99.90
13892;DHT22;7016;48.172;8.058;2022-11-14T15:06:51;12.30;99.90
13892;DHT22;7016;48.172;8.058;2022-11-14T15:09:25;12.30;99.90
13892;DHT22;7016;48.172;8.058;2022-11-14T15:11:54;12.30;99.90
13892;DHT22;7016;48.172;8.058;2022-11-14T15:14:31;12.30;99.90
13892;DHT22;7016;48.172;8.058;2022-11-14T15:16:59;12.30;99.90
13892;DHT22;7016;48.172;8.058;2022-11-14T15:19:32;12.30;99.90
13892;DHT22;7016;48.172;8.058;2022-11-14T15:22:23;12.30;99.90
13892;DHT22;7016;48.172;8.058;2022-11-14T15:28:15;12.40;99.90
13892;DHT22;7016;48.172;8.058;2022-11-14T15:30:57;12.40;99.90
13892;DHT22;7016;48.172;8.058;2022-11-14T15:33:29;12.50;99.90
13892;DHT22;7016;48.172;8.058;2022-11-14T15:36:15;12.50;99.90
13892;DHT22;7016;48.172;8.058;2022-11-14T15:39:18;12.50;99.90
13892;DHT22;7016;48.172;8.058;2022-11-14T15:44:29;12.50;99.90
13892;DHT22;7016;48.172;8.058;2022-11-14T15:46:55;12.40;99.90
13892;DHT22;7016;48.172;8.058;2022-11-14T15:49:25;12.40;99.90
13892;DHT22;7016;48.172;8.058;2022-11-14T15:51:55;12.50;99.90
13892;DHT22;7016;48.172;8.058;2022-11-14T15:54:28;12.40;99.90
13892;DHT22;7016;48.172;8.058;2022-11-14T15:57:00;12.40;99.90
13892;DHT22;7016;48.172;8.058;2022-11-14T15:59:28;12.40;99.90
13892;DHT22;7016;48.172;8.058;2022-11-14T16:02:01;12.30;99.90
13892;DHT22;7016;48.172;8.058;2022-11-14T16:04:33;12.30;99.90
13892;DHT22;7016;48.172;8.058;2022-11-14T16:07:00;12.20;99.90
13892;DHT22;7016;48.172;8.058;2022-11-14T16:09:25;12.20;99.90
13892;DHT22;7016;48.172;8.058;2022-11-14T16:11:51;12.20;99.90
13892;DHT22;7016;48.172;8.058;2022-11-14T16:14:17;12.20;99.90
13892;DHT22;7016;48.172;8.058;2022-11-14T16:16:42;12.10;99.90
13892;DHT22;7016;48.172;8.058;2022-11-14T16:19:12;12.20;99.90
13892;DHT22;7016;48.172;8.058;2022-11-14T16:21:39;12.10;99.90
13892;DHT22;7016;48.172;8.058;2022-11-14T16:24:09;11.90;99.90
13892;DHT22;7016;48.172;8.058;2022-11-14T16:26:36;11.90;99.90
13892;DHT22;7016;48.172;8.058;2022-11-14T16:29:02;11.90;99.90
13892;DHT22;7016;48.172;8.058;2022-11-14T16:31:28;11.90;99.90
13892;DHT22;7016;48.172;8.058;2022-11-14T16:33:54;11.90;99.90
13892;DHT22;7016;48.172;8.058;2022-11-14T16:36:21;11.90;99.90
13892;DHT22;7016;48.172;8.058;2022-11-14T16:38:47;11.80;99.90
13892;DHT22;7016;48.172;8.058;2022-11-14T16:41:13;11.60;99.90
13892;DHT22;7016;48.172;8.058;2022-11-14T16:43:40;11.70;99.90
13892;DHT22;7016;48.172;8.058;2022-11-14T16:46:06;11.70;99.90
13892;DHT22;7016;48.172;8.058;2022-11-14T16:48:32;11.60;99.90
13892;DHT22;7016;48.172;8.058;2022-11-14T16:51:04;11.70;99.90
13892;DHT22;7016;48.172;8.058;2022-11-14T16:53:30;11.60;99.90
13892;DHT22;7016;48.172;8.058;2022-11-14T16:56:01;11.60;99.90
13892;DHT22;7016;48.172;8.058;2022-11-14T16:58:33;11.60;99.90
13892;DHT22;7016;48.172;8.058;2022-11-14T17:00:59;11.30;99.90
13892;DHT22;7016;48.172;8.058;2022-11-14T17:03:24;11.30;99.90
13892;DHT22;7016;48.172;8.058;2022-11-14T17:05:51;11.30;99.90
13892;DHT22;7016;48.172;8.058;2022-11-14T17:08:16;11.30;99.90
13892;DHT22;7016;48.172;8.058;2022-11-14T17:10:44;11.20;99.90
13892;DHT22;7016;48.172;8.058;2022-11-14T17:13:11;11.00;99.90
13892;DHT22;7016;48.172;8.058;2022-11-14T17:15:38;11.00;99.90
13892;DHT22;7016;48.172;8.058;2022-11-14T17:18:04;11.10;99.90
13892;DHT22;7016;48.172;8.058;2022-11-14T17:20:31;11.10;99.90
13892;DHT22;7016;48.172;8.058;2022-11-14T17:22:57;11.10;99.90
13892;DHT22;7016;48.172;8.058;2022-11-14T17:25:22;11.10;99.90
13892;DHT22;7016;48.172;8.058;2022-11-14T17:27:49;11.00;99.90
13892;DHT22;7016;48.172;8.058;2022-11-14T17:30:15;11.00;99.90
13892;DHT22;7016;48.172;8.058;2022-11-14T17:32:42;11.10;99.90
13892;DHT22;7016;48.172;8.058;2022-11-14T17:35:08;11.10;99.90
13892;DHT22;7016;48.172;8.058;2022-11-14T17:37:34;11.00;99.90
13892;DHT22;7016;48.172;8.058;2022-11-14T17:39:59;11.10;99.90
13892;DHT22;7016;48.172;8.058;2022-11-14T17:42:25;11.10;99.90
13892;DHT22;7016;48.172;8.058;2022-11-14T17:44:51;11.10;99.90
13892;DHT22;7016;48.172;8.058;2022-11-14T17:47:18;11.10;99.90
13892;DHT22;7016;48.172;8.058;2022-11-14T17:49:44;11.20;99.90
13892;DHT22;7016;48.172;8.058;2022-11-14T17:52:10;11.10;99.90
13892;DHT22;7016;48.172;8.058;2022-11-14T17:54:35;11.20;99.90